sensor_id;sensor_type;location;lat;lon;timestamp;P1;durP1;ratioP1;P2;durP2;ratioP2
69991;SDS011;57332;51.320;-0.580;2024-03-17T00:02:20;5.55;;;2.67;;
69991;SDS011;57332;51.320;-0.580;2024-03-17T00:04:46;5.25;;;2.60;;
69991;SDS011;57332;51.320;-0.580;2024-03-17T00:07:12;7.47;;;2.40;;
69991;SDS011;57332;51.320;-0.580;2024-03-17T00:09:39;6.45;;;2.40;;
69991;SDS011;57332;51.320;-0.580;2024-03-17T00:12:05;4.78;;;2.20;;
69991;SDS011;57332;51.320;-0.580;2024-03-17T00:14:31;5.38;;;2.53;;
69991;SDS011;57332;51.320;-0.580;2024-03-17T00:16:57;4.20;;;2.10;;
69991;SDS011;57332;51.320;-0.580;2024-03-17T00:19:23;4.07;;;2.42;;
69991;SDS011;57332;51.320;-0.580;2024-03-17T00:21:49;4.05;;;2.13;;
69991;SDS011;57332;51.320;-0.580;2024-03-17T00:24:19;6.30;;;2.20;;
69991;SDS011;57332;51.320;-0.580;2024-03-17T00:26:46;5.43;;;2.63;;
69991;SDS011;57332;51.320;-0.580;2024-03-17T00:29:12;7.25;;;2.92;;
69991;SDS011;57332;51.320;-0.580;2024-03-17T00:31:38;3.70;;;2.60;;
69991;SDS011;57332;51.320;-0.580;2024-03-17T00:34:03;6.70;;;2.92;;
69991;SDS011;57332;51.320;-0.580;2024-03-17T00:36:32;6.05;;;2.85;;
69991;SDS011;57332;51.320;-0.580;2024-03-17T00:38:58;8.07;;;3.35;;
69991;SDS011;57332;51.320;-0.580;2024-03-17T00:41:24;7.40;;;2.97;;
69991;SDS011;57332;51.320;-0.580;2024-03-17T00:43:50;10.02;;;3.20;;
69991;SDS011;57332;51.320;-0.580;2024-03-17T00:46:21;6.70;;;3.28;;
69991;SDS011;57332;51.320;-0.580;2024-03-17T00:48:49;9.02;;;3.13;;
69991;SDS011;57332;51.320;-0.580;2024-03-17T00:51:15;9.68;;;3.67;;
69991;SDS011;57332;51.320;-0.580;2024-03-17T00:53:41;7.70;;;3.70;;
69991;SDS011;57332;51.320;-0.580;2024-03-17T00:56:07;8.30;;;4.10;;
69991;SDS011;57332;51.320;-0.580;2024-03-17T00:58:33;11.90;;;4.13;;
69991;SDS011;57332;51.320;-0.580;2024-03-17T01:00:59;9.05;;;4.93;;
69991;SDS011;57332;51.320;-0.580;2024-03-17T01:03:25;11.30;;;4.72;;
69991;SDS011;57332;51.320;-0.580;2024-03-17T01:05:52;10.23;;;4.25;;
69991;SDS011;57332;51.320;-0.580;2024-03-17T01:08:18;11.40;;;4.78;;
69991;SDS011;57332;51.320;-0.580;2024-03-17T01:10:45;10.63;;;4.78;;
69991;SDS011;57332;51.320;-0.580;2024-03-17T01:13:11;11.63;;;4.82;;
69991;SDS011;57332;51.320;-0.580;2024-03-17T01:15:37;13.05;;;5.78;;
69991;SDS011;57332;51.320;-0.580;2024-03-17T01:18:06;12.65;;;5.22;;
69991;SDS011;57332;51.320;-0.580;2024-03-17T01:20:32;13.18;;;5.03;;
69991;SDS011;57332;51.320;-0.580;2024-03-17T01:22:59;14.57;;;5.25;;
69991;SDS011;57332;51.320;-0.580;2024-03-17T01:25:24;11.85;;;5.60;;
69991;SDS011;57332;51.320;-0.580;2024-03-17T01:27:55;13.38;;;5.88;;
69991;SDS011;57332;51.320;-0.580;2024-03-17T01:30:22;13.52;;;5.43;;
69991;SDS011;57332;51.320;-0.580;2024-03-17T01:32:48;16.20;;;6.05;;
69991;SDS011;57332;51.320;-0.580;2024-03-17T01:35:14;15.40;;;5.68;;
69991;SDS011;57332;51.320;-0.580;2024-03-17T01:37:41;14.50;;;5.18;;
69991;SDS011;57332;51.320;-0.580;2024-03-17T01:40:07;15.80;;;5.32;;
69991;SDS011;57332;51.320;-0.580;2024-03-17T01:42:39;14.48;;;5.72;;
69991;SDS011;57332;51.320;-0.580;2024-03-17T01:47:50;16.92;;;6.05;;
69991;SDS011;57332;51.320;-0.580;2024-03-17T01:50:16;14.57;;;5.97;;
69991;SDS011;57332;51.320;-0.580;2024-03-17T01:52:45;18.25;;;6.25;;
69991;SDS011;57332;51.320;-0.580;2024-03-17T01:55:12;16.95;;;6.20;;
69991;SDS011;57332;51.320;-0.580;2024-03-17T01:57:38;17.02;;;6.07;;
69991;SDS011;57332;51.320;-0.580;2024-03-17T02:00:04;16.05;;;6.03;;
69991;SDS011;57332;51.320;-0.580;2024-03-17T02:02:34;16.52;;;6.18;;
69991;SDS011;57332;51.320;-0.580;2024-03-17T02:05:00;16.38;;;6.35;;
69991;SDS011;57332;51.320;-0.580;2024-03-17T02:07:26;15.50;;;6.03;;
69991;SDS011;57332;51.320;-0.580;2024-03-17T02:09:51;15.82;;;5.68;;
69991;SDS011;57332;51.320;-0.580;2024-03-17T02:12:17;19.92;;;6.72;;
69991;SDS011;57332;51.320;-0.580;2024-03-17T02:14:43;20.70;;;6.47;;
69991;SDS011;57332;51.320;-0.580;2024-03-17T02:17:09;20.13;;;6.40;;
69991;SDS011;57332;51.320;-0.580;2024-03-17T02:19:35;18.23;;;6.18;;
69991;SDS011;57332;51.320;-0.580;2024-03-17T02:22:01;19.25;;;6.40;;
69991;SDS011;57332;51.320;-0.580;2024-03-17T02:24:27;17.98;;;6.55;;
69991;SDS011;57332;51.320;-0.580;2024-03-17T02:26:52;20.27;;;6.55;;
69991;SDS011;57332;51.320;-0.580;2024-03-17T02:29:18;18.88;;;7.03;;
69991;SDS011;57332;51.320;-0.580;2024-03-17T02:31:44;21.95;;;6.30;;
69991;SDS011;57332;51.320;-0.580;2024-03-17T02:34:10;16.35;;;5.90;;
69991;SDS011;57332;51.320;-0.580;2024-03-17T02:36:36;16.60;;;6.68;;
69991;SDS011;57332;51.320;-0.580;2024-03-17T02:39:02;20.05;;;7.18;;
69991;SDS011;57332;51.320;-0.580;2024-03-17T02:41:46;22.10;;;6.47;;
69991;SDS011;57332;51.320;-0.580;2024-03-17T02:44:12;18.48;;;7.10;;
69991;SDS011;57332;51.320;-0.580;2024-03-17T02:46:38;15.85;;;6.32;;
69991;SDS011;57332;51.320;-0.580;2024-03-17T02:49:04;17.15;;;6.55;;
69991;SDS011;57332;51.320;-0.580;2024-03-17T02:51:30;15.70;;;5.43;;
69991;SDS011;57332;51.320;-0.580;2024-03-17T02:53:55;17.17;;;6.18;;
69991;SDS011;57332;51.320;-0.580;2024-03-17T02:56:21;15.95;;;6.00;;
69991;SDS011;57332;51.320;-0.580;2024-03-17T02:58:47;17.52;;;6.25;;
69991;SDS011;57332;51.320;-0.580;2024-03-17T03:01:13;14.00;;;4.97;;
69991;SDS011;57332;51.320;-0.580;2024-03-17T03:03:40;14.55;;;5.85;;
69991;SDS011;57332;51.320;-0.580;2024-03-17T03:06:06;16.35;;;5.20;;
69991;SDS011;57332;51.320;-0.580;2024-03-17T03:08:40;13.82;;;4.82;;
69991;SDS011;57332;51.320;-0.580;2024-03-17T03:11:07;14.10;;;5.55;;
69991;SDS011;57332;51.320;-0.580;2024-03-17T03:13:37;12.18;;;4.93;;
69991;SDS011;57332;51.320;-0.580;2024-03-17T03:16:04;13.90;;;4.97;;
69991;SDS011;57332;51.320;-0.580;2024-03-17T03:18:30;10.63;;;4.53;;
69991;SDS011;57332;51.320;-0.580;2024-03-17T03:20:56;10.82;;;4.32;;
69991;SDS011;57332;51.320;-0.580;2024-03-17T03:23:22;11.13;;;4.72;;
69991;SDS011;57332;51.320;-0.580;2024-03-17T03:25:54;11.10;;;4.35;;
69991;SDS011;57332;51.320;-0.580;2024-03-17T03:28:20;10.20;;;4.20;;
69991;SDS011;57332;51.320;-0.580;2024-03-17T03:30:45;12.82;;;4.70;;
69991;SDS011;57332;51.320;-0.580;2024-03-17T03:33:11;11.63;;;3.80;;
69991;SDS011;57332;51.320;-0.580;2024-03-17T03:35:37;10.90;;;4.22;;
69991;SDS011;57332;51.320;-0.580;2024-03-17T03:38:03;8.68;;;3.97;;
69991;SDS011;57332;51.320;-0.580;2024-03-17T03:40:29;9.70;;;3.85;;
69991;SDS011;57332;51.320;-0.580;2024-03-17T03:42:55;10.70;;;3.80;;
69991;SDS011;57332;51.320;-0.580;2024-03-17T03:45:22;10.20;;;3.95;;
69991;SDS011;57332;51.320;-0.580;2024-03-17T03:47:47;11.00;;;4.05;;
69991;SDS011;57332;51.320;-0.580;2024-03-17T03:50:18;7.75;;;3.67;;
69991;SDS011;57332;51.320;-0.580;2024-03-17T03:52:44;11.75;;;4.38;;
69991;SDS011;57332;51.320;-0.580;2024-03-17T03:55:11;10.88;;;4.57;;
69991;SDS011;57332;51.320;-0.580;2024-03-17T03:57:37;8.10;;;4.20;;
69991;SDS011;57332;51.320;-0.580;2024-03-17T04:00:03;10.23;;;3.85;;
69991;SDS011;57332;51.320;-0.580;2024-03-17T04:02:38;11.75;;;3.92;;
69991;SDS011;57332;51.320;-0.580;2024-03-17T04:05:04;12.05;;;3.97;;
69991;SDS011;57332;51.320;-0.580;2024-03-17T04:07:30;13.80;;;4.60;;
69991;SDS011;57332;51.320;-0.580;2024-03-17T04:09:56;9.90;;;4.53;;
69991;SDS011;57332;51.320;-0.580;2024-03-17T04:12:22;13.13;;;4.25;;
69991;SDS011;57332;51.320;-0.580;2024-03-17T04:14:48;12.02;;;4.70;;
69991;SDS011;57332;51.320;-0.580;2024-03-17T04:17:22;16.42;;;5.00;;
69991;SDS011;57332;51.320;-0.580;2024-03-17T04:19:49;11.20;;;4.55;;
69991;SDS011;57332;51.320;-0.580;2024-03-17T04:22:15;14.02;;;5.13;;
69991;SDS011;57332;51.320;-0.580;2024-03-17T04:24:45;12.13;;;4.25;;
69991;SDS011;57332;51.320;-0.580;2024-03-17T04:27:12;12.52;;;4.25;;
69991;SDS011;57332;51.320;-0.580;2024-03-17T04:29:38;11.93;;;4.38;;
69991;SDS011;57332;51.320;-0.580;2024-03-17T04:32:05;13.32;;;4.10;;
69991;SDS011;57332;51.320;-0.580;2024-03-17T04:34:31;13.52;;;4.10;;
69991;SDS011;57332;51.320;-0.580;2024-03-17T04:36:57;10.38;;;4.15;;
69991;SDS011;57332;51.320;-0.580;2024-03-17T04:39:23;12.30;;;4.13;;
69991;SDS011;57332;51.320;-0.580;2024-03-17T04:41:49;12.90;;;4.50;;
69991;SDS011;57332;51.320;-0.580;2024-03-17T04:44:15;11.10;;;4.32;;
69991;SDS011;57332;51.320;-0.580;2024-03-17T04:46:42;10.55;;;4.05;;
69991;SDS011;57332;51.320;-0.580;2024-03-17T04:49:07;11.35;;;4.03;;
69991;SDS011;57332;51.320;-0.580;2024-03-17T04:51:34;10.70;;;4.07;;
69991;SDS011;57332;51.320;-0.580;2024-03-17T04:54:03;12.25;;;4.10;;
69991;SDS011;57332;51.320;-0.580;2024-03-17T04:56:29;16.33;;;4.30;;
69991;SDS011;57332;51.320;-0.580;2024-03-17T04:58:55;14.23;;;4.45;;
69991;SDS011;57332;51.320;-0.580;2024-03-17T05:01:21;14.70;;;4.43;;
69991;SDS011;57332;51.320;-0.580;2024-03-17T05:03:47;12.65;;;4.20;;
69991;SDS011;57332;51.320;-0.580;2024-03-17T05:06:16;12.77;;;4.00;;
69991;SDS011;57332;51.320;-0.580;2024-03-17T05:08:42;10.52;;;3.50;;
69991;SDS011;57332;51.320;-0.580;2024-03-17T05:11:08;12.27;;;3.80;;
69991;SDS011;57332;51.320;-0.580;2024-03-17T05:13:35;13.35;;;3.85;;
69991;SDS011;57332;51.320;-0.580;2024-03-17T05:16:01;15.88;;;4.18;;
69991;SDS011;57332;51.320;-0.580;2024-03-17T05:18:29;13.52;;;4.32;;
69991;SDS011;57332;51.320;-0.580;2024-03-17T05:20:58;11.10;;;4.13;;
69991;SDS011;57332;51.320;-0.580;2024-03-17T05:23:25;7.80;;;3.90;;
69991;SDS011;57332;51.320;-0.580;2024-03-17T05:25:52;13.02;;;3.88;;
69991;SDS011;57332;51.320;-0.580;2024-03-17T05:28:17;13.35;;;4.30;;
69991;SDS011;57332;51.320;-0.580;2024-03-17T05:30:43;11.65;;;3.85;;
69991;SDS011;57332;51.320;-0.580;2024-03-17T05:33:09;11.73;;;3.72;;
69991;SDS011;57332;51.320;-0.580;2024-03-17T05:35:35;7.95;;;4.55;;
69991;SDS011;57332;51.320;-0.580;2024-03-17T05:38:01;12.60;;;4.00;;
69991;SDS011;57332;51.320;-0.580;2024-03-17T05:40:27;13.40;;;4.30;;
69991;SDS011;57332;51.320;-0.580;2024-03-17T05:42:53;16.20;;;4.55;;
69991;SDS011;57332;51.320;-0.580;2024-03-17T05:45:19;10.57;;;4.40;;
69991;SDS011;57332;51.320;-0.580;2024-03-17T05:47:44;11.75;;;4.13;;
69991;SDS011;57332;51.320;-0.580;2024-03-17T05:50:10;14.57;;;4.40;;
69991;SDS011;57332;51.320;-0.580;2024-03-17T05:52:38;12.45;;;4.63;;
69991;SDS011;57332;51.320;-0.580;2024-03-17T05:55:04;10.32;;;3.75;;
69991;SDS011;57332;51.320;-0.580;2024-03-17T05:57:30;10.95;;;3.65;;
69991;SDS011;57332;51.320;-0.580;2024-03-17T05:59:56;10.57;;;3.92;;
69991;SDS011;57332;51.320;-0.580;2024-03-17T06:02:22;9.40;;;4.00;;
69991;SDS011;57332;51.320;-0.580;2024-03-17T06:04:48;10.68;;;4.28;;
69991;SDS011;57332;51.320;-0.580;2024-03-17T06:07:14;9.07;;;3.63;;
69991;SDS011;57332;51.320;-0.580;2024-03-17T06:09:39;8.48;;;4.18;;
69991;SDS011;57332;51.320;-0.580;2024-03-17T06:12:05;12.40;;;4.15;;
69991;SDS011;57332;51.320;-0.580;2024-03-17T06:14:31;9.93;;;4.05;;
69991;SDS011;57332;51.320;-0.580;2024-03-17T06:16:57;14.00;;;3.60;;
69991;SDS011;57332;51.320;-0.580;2024-03-17T06:19:23;12.10;;;3.70;;
69991;SDS011;57332;51.320;-0.580;2024-03-17T06:21:49;10.63;;;3.85;;
69991;SDS011;57332;51.320;-0.580;2024-03-17T06:24:16;13.65;;;3.70;;
69991;SDS011;57332;51.320;-0.580;2024-03-17T06:26:42;9.20;;;3.53;;
69991;SDS011;57332;51.320;-0.580;2024-03-17T06:29:08;12.00;;;3.90;;
69991;SDS011;57332;51.320;-0.580;2024-03-17T06:31:34;10.30;;;3.75;;
69991;SDS011;57332;51.320;-0.580;2024-03-17T06:33:59;12.18;;;3.40;;
69991;SDS011;57332;51.320;-0.580;2024-03-17T06:36:25;11.10;;;3.65;;
69991;SDS011;57332;51.320;-0.580;2024-03-17T06:38:51;10.55;;;3.60;;
69991;SDS011;57332;51.320;-0.580;2024-03-17T06:41:17;10.85;;;4.00;;
69991;SDS011;57332;51.320;-0.580;2024-03-17T06:43:43;9.05;;;3.30;;
69991;SDS011;57332;51.320;-0.580;2024-03-17T06:46:09;13.02;;;3.90;;
69991;SDS011;57332;51.320;-0.580;2024-03-17T06:48:35;9.20;;;3.13;;
69991;SDS011;57332;51.320;-0.580;2024-03-17T06:51:01;11.93;;;3.85;;
69991;SDS011;57332;51.320;-0.580;2024-03-17T06:53:27;12.52;;;3.40;;
69991;SDS011;57332;51.320;-0.580;2024-03-17T06:55:54;11.35;;;3.10;;
69991;SDS011;57332;51.320;-0.580;2024-03-17T06:58:20;8.05;;;2.83;;
69991;SDS011;57332;51.320;-0.580;2024-03-17T07:00:55;9.48;;;3.65;;
69991;SDS011;57332;51.320;-0.580;2024-03-17T07:03:22;9.93;;;3.17;;
69991;SDS011;57332;51.320;-0.580;2024-03-17T07:05:51;6.68;;;2.63;;
69991;SDS011;57332;51.320;-0.580;2024-03-17T07:08:18;8.45;;;3.13;;
69991;SDS011;57332;51.320;-0.580;2024-03-17T07:10:55;7.38;;;2.70;;
69991;SDS011;57332;51.320;-0.580;2024-03-17T07:13:21;9.38;;;2.88;;
69991;SDS011;57332;51.320;-0.580;2024-03-17T07:15:47;9.32;;;2.90;;
69991;SDS011;57332;51.320;-0.580;2024-03-17T07:18:13;8.75;;;2.75;;
69991;SDS011;57332;51.320;-0.580;2024-03-17T07:20:39;8.27;;;2.63;;
69991;SDS011;57332;51.320;-0.580;2024-03-17T07:23:05;9.35;;;2.90;;
69991;SDS011;57332;51.320;-0.580;2024-03-17T07:25:30;9.00;;;2.50;;
69991;SDS011;57332;51.320;-0.580;2024-03-17T07:27:56;9.65;;;2.38;;
69991;SDS011;57332;51.320;-0.580;2024-03-17T07:30:22;9.35;;;2.15;;
69991;SDS011;57332;51.320;-0.580;2024-03-17T07:32:48;6.32;;;2.50;;
69991;SDS011;57332;51.320;-0.580;2024-03-17T07:35:14;5.35;;;1.83;;
69991;SDS011;57332;51.320;-0.580;2024-03-17T07:37:39;5.60;;;2.30;;
69991;SDS011;57332;51.320;-0.580;2024-03-17T07:40:05;6.25;;;2.25;;
69991;SDS011;57332;51.320;-0.580;2024-03-17T07:42:36;8.38;;;2.10;;
69991;SDS011;57332;51.320;-0.580;2024-03-17T07:45:02;6.43;;;2.30;;
69991;SDS011;57332;51.320;-0.580;2024-03-17T07:47:29;5.13;;;2.15;;
69991;SDS011;57332;51.320;-0.580;2024-03-17T07:52:29;6.93;;;1.77;;
69991;SDS011;57332;51.320;-0.580;2024-03-17T07:54:55;6.53;;;2.25;;
69991;SDS011;57332;51.320;-0.580;2024-03-17T07:57:22;5.30;;;1.67;;
69991;SDS011;57332;51.320;-0.580;2024-03-17T07:59:51;5.30;;;1.77;;
69991;SDS011;57332;51.320;-0.580;2024-03-17T08:02:17;5.55;;;2.00;;
69991;SDS011;57332;51.320;-0.580;2024-03-17T08:04:43;4.50;;;1.85;;
69991;SDS011;57332;51.320;-0.580;2024-03-17T08:07:10;7.63;;;1.90;;
69991;SDS011;57332;51.320;-0.580;2024-03-17T08:09:36;6.53;;;1.80;;
69991;SDS011;57332;51.320;-0.580;2024-03-17T08:12:02;5.85;;;1.85;;
69991;SDS011;57332;51.320;-0.580;2024-03-17T08:14:30;4.30;;;1.80;;
69991;SDS011;57332;51.320;-0.580;2024-03-17T08:16:56;3.90;;;1.38;;
69991;SDS011;57332;51.320;-0.580;2024-03-17T08:19:21;4.90;;;2.00;;
69991;SDS011;57332;51.320;-0.580;2024-03-17T08:21:47;6.53;;;2.00;;
69991;SDS011;57332;51.320;-0.580;2024-03-17T08:24:13;5.07;;;1.60;;
69991;SDS011;57332;51.320;-0.580;2024-03-17T08:26:39;5.65;;;1.70;;
69991;SDS011;57332;51.320;-0.580;2024-03-17T08:31:36;10.43;;;2.15;;
69991;SDS011;57332;51.320;-0.580;2024-03-17T08:34:02;3.58;;;1.67;;
69991;SDS011;57332;51.320;-0.580;2024-03-17T08:36:28;4.38;;;1.70;;
69991;SDS011;57332;51.320;-0.580;2024-03-17T08:38:54;4.38;;;1.98;;
69991;SDS011;57332;51.320;-0.580;2024-03-17T08:41:20;5.55;;;1.63;;
69991;SDS011;57332;51.320;-0.580;2024-03-17T08:43:46;5.57;;;1.67;;
69991;SDS011;57332;51.320;-0.580;2024-03-17T08:46:12;4.78;;;1.63;;
69991;SDS011;57332;51.320;-0.580;2024-03-17T08:48:39;3.42;;;1.50;;
69991;SDS011;57332;51.320;-0.580;2024-03-17T08:51:06;4.32;;;1.48;;
69991;SDS011;57332;51.320;-0.580;2024-03-17T08:53:32;4.72;;;1.50;;
69991;SDS011;57332;51.320;-0.580;2024-03-17T08:55:59;4.47;;;1.30;;
69991;SDS011;57332;51.320;-0.580;2024-03-17T08:58:25;5.93;;;1.33;;
69991;SDS011;57332;51.320;-0.580;2024-03-17T09:00:51;5.57;;;1.30;;
69991;SDS011;57332;51.320;-0.580;2024-03-17T09:03:17;2.70;;;1.10;;
69991;SDS011;57332;51.320;-0.580;2024-03-17T09:05:44;3.85;;;1.20;;
69991;SDS011;57332;51.320;-0.580;2024-03-17T09:08:20;3.95;;;1.13;;
69991;SDS011;57332;51.320;-0.580;2024-03-17T09:10:48;3.50;;;0.80;;
69991;SDS011;57332;51.320;-0.580;2024-03-17T09:13:15;4.80;;;1.20;;
69991;SDS011;57332;51.320;-0.580;2024-03-17T09:15:55;3.50;;;0.90;;
69991;SDS011;57332;51.320;-0.580;2024-03-17T09:18:22;1.98;;;1.00;;
69991;SDS011;57332;51.320;-0.580;2024-03-17T09:21:01;1.88;;;0.80;;
69991;SDS011;57332;51.320;-0.580;2024-03-17T09:23:28;4.30;;;1.00;;
69991;SDS011;57332;51.320;-0.580;2024-03-17T09:28:22;1.42;;;0.68;;
69991;SDS011;57332;51.320;-0.580;2024-03-17T09:30:48;2.90;;;0.70;;
69991;SDS011;57332;51.320;-0.580;2024-03-17T09:33:15;2.40;;;0.70;;
69991;SDS011;57332;51.320;-0.580;2024-03-17T09:35:40;0.75;;;0.60;;
69991;SDS011;57332;51.320;-0.580;2024-03-17T09:38:06;1.15;;;0.65;;
69991;SDS011;57332;51.320;-0.580;2024-03-17T09:40:32;2.28;;;0.50;;
69991;SDS011;57332;51.320;-0.580;2024-03-17T09:42:58;1.35;;;0.57;;
69991;SDS011;57332;51.320;-0.580;2024-03-17T09:45:24;0.93;;;0.70;;
69991;SDS011;57332;51.320;-0.580;2024-03-17T09:47:51;1.23;;;0.80;;
69991;SDS011;57332;51.320;-0.580;2024-03-17T09:50:17;0.98;;;0.50;;
69991;SDS011;57332;51.320;-0.580;2024-03-17T09:52:44;0.73;;;0.50;;
69991;SDS011;57332;51.320;-0.580;2024-03-17T09:55:16;1.80;;;0.60;;
69991;SDS011;57332;51.320;-0.580;2024-03-17T09:57:45;0.73;;;0.50;;
69991;SDS011;57332;51.320;-0.580;2024-03-17T10:00:15;0.40;;;0.32;;
69991;SDS011;57332;51.320;-0.580;2024-03-17T10:02:42;1.17;;;0.57;;
69991;SDS011;57332;51.320;-0.580;2024-03-17T10:05:23;1.23;;;0.60;;
69991;SDS011;57332;51.320;-0.580;2024-03-17T10:07:49;1.67;;;0.50;;
69991;SDS011;57332;51.320;-0.580;2024-03-17T10:10:15;1.65;;;0.40;;
69991;SDS011;57332;51.320;-0.580;2024-03-17T10:12:50;1.90;;;0.50;;
69991;SDS011;57332;51.320;-0.580;2024-03-17T10:15:17;2.58;;;0.65;;
69991;SDS011;57332;51.320;-0.580;2024-03-17T10:17:43;0.77;;;0.50;;
69991;SDS011;57332;51.320;-0.580;2024-03-17T10:20:16;0.82;;;0.50;;
69991;SDS011;57332;51.320;-0.580;2024-03-17T10:25:28;1.38;;;0.45;;
69991;SDS011;57332;51.320;-0.580;2024-03-17T10:27:54;0.93;;;0.50;;
69991;SDS011;57332;51.320;-0.580;2024-03-17T10:30:20;1.13;;;0.50;;
69991;SDS011;57332;51.320;-0.580;2024-03-17T10:32:54;1.15;;;0.55;;
69991;SDS011;57332;51.320;-0.580;2024-03-17T10:35:27;0.82;;;0.50;;
69991;SDS011;57332;51.320;-0.580;2024-03-17T10:37:53;2.03;;;0.70;;
69991;SDS011;57332;51.320;-0.580;2024-03-17T10:40:19;1.35;;;0.70;;
69991;SDS011;57332;51.320;-0.580;2024-03-17T10:42:45;0.93;;;0.50;;
69991;SDS011;57332;51.320;-0.580;2024-03-17T10:45:13;1.70;;;0.77;;
69991;SDS011;57332;51.320;-0.580;2024-03-17T10:47:39;1.05;;;0.65;;
69991;SDS011;57332;51.320;-0.580;2024-03-17T10:50:08;1.17;;;0.55;;
69991;SDS011;57332;51.320;-0.580;2024-03-17T10:52:38;1.27;;;0.57;;
69991;SDS011;57332;51.320;-0.580;2024-03-17T10:55:07;1.83;;;0.80;;
69991;SDS011;57332;51.320;-0.580;2024-03-17T11:00:00;1.95;;;0.93;;
69991;SDS011;57332;51.320;-0.580;2024-03-17T11:02:31;2.72;;;0.80;;
69991;SDS011;57332;51.320;-0.580;2024-03-17T11:05:41;1.92;;;0.90;;
69991;SDS011;57332;51.320;-0.580;2024-03-17T11:07:48;2.83;;;0.90;;
69991;SDS011;57332;51.320;-0.580;2024-03-17T11:10:15;2.25;;;1.00;;
69991;SDS011;57332;51.320;-0.580;2024-03-17T11:12:51;2.25;;;0.90;;
69991;SDS011;57332;51.320;-0.580;2024-03-17T11:17:55;2.58;;;1.10;;
69991;SDS011;57332;51.320;-0.580;2024-03-17T11:20:30;2.50;;;0.80;;
69991;SDS011;57332;51.320;-0.580;2024-03-17T11:22:57;4.22;;;1.10;;
69991;SDS011;57332;51.320;-0.580;2024-03-17T11:27:55;2.28;;;1.17;;
69991;SDS011;57332;51.320;-0.580;2024-03-17T11:35:50;2.17;;;1.13;;
69991;SDS011;57332;51.320;-0.580;2024-03-17T11:43:45;3.05;;;1.00;;
69991;SDS011;57332;51.320;-0.580;2024-03-17T11:46:11;2.30;;;1.15;;
69991;SDS011;57332;51.320;-0.580;2024-03-17T11:48:37;2.47;;;1.17;;
69991;SDS011;57332;51.320;-0.580;2024-03-17T11:51:02;3.30;;;1.20;;
69991;SDS011;57332;51.320;-0.580;2024-03-17T11:53:29;2.92;;;1.13;;
69991;SDS011;57332;51.320;-0.580;2024-03-17T11:55:55;2.63;;;1.30;;
69991;SDS011;57332;51.320;-0.580;2024-03-17T11:58:21;2.22;;;1.23;;
69991;SDS011;57332;51.320;-0.580;2024-03-17T12:00:51;4.07;;;1.45;;
69991;SDS011;57332;51.320;-0.580;2024-03-17T12:03:17;4.18;;;1.52;;
69991;SDS011;57332;51.320;-0.580;2024-03-17T12:05:43;3.55;;;1.60;;
69991;SDS011;57332;51.320;-0.580;2024-03-17T12:08:18;3.55;;;1.40;;
69991;SDS011;57332;51.320;-0.580;2024-03-17T12:10:48;3.90;;;1.88;;
69991;SDS011;57332;51.320;-0.580;2024-03-17T12:13:14;3.63;;;1.45;;
69991;SDS011;57332;51.320;-0.580;2024-03-17T12:15:40;3.08;;;1.50;;
69991;SDS011;57332;51.320;-0.580;2024-03-17T12:18:19;2.72;;;1.67;;
69991;SDS011;57332;51.320;-0.580;2024-03-17T12:20:47;2.63;;;1.60;;
69991;SDS011;57332;51.320;-0.580;2024-03-17T12:23:13;4.03;;;1.77;;
69991;SDS011;57332;51.320;-0.580;2024-03-17T12:25:46;3.55;;;1.70;;
69991;SDS011;57332;51.320;-0.580;2024-03-17T12:28:15;3.55;;;1.90;;
69991;SDS011;57332;51.320;-0.580;2024-03-17T12:30:42;3.53;;;1.83;;
69991;SDS011;57332;51.320;-0.580;2024-03-17T12:33:09;4.00;;;1.98;;
69991;SDS011;57332;51.320;-0.580;2024-03-17T12:35:36;2.90;;;1.60;;
69991;SDS011;57332;51.320;-0.580;2024-03-17T12:38:19;3.30;;;1.50;;
69991;SDS011;57332;51.320;-0.580;2024-03-17T12:40:47;3.67;;;1.67;;
69991;SDS011;57332;51.320;-0.580;2024-03-17T12:43:13;2.40;;;1.40;;
69991;SDS011;57332;51.320;-0.580;2024-03-17T12:45:38;2.83;;;1.40;;
69991;SDS011;57332;51.320;-0.580;2024-03-17T12:48:10;3.08;;;1.42;;
69991;SDS011;57332;51.320;-0.580;2024-03-17T12:50:43;3.08;;;1.50;;
69991;SDS011;57332;51.320;-0.580;2024-03-17T12:53:13;2.55;;;1.48;;
69991;SDS011;57332;51.320;-0.580;2024-03-17T12:55:41;2.42;;;1.35;;
69991;SDS011;57332;51.320;-0.580;2024-03-17T12:58:26;2.53;;;1.30;;
69991;SDS011;57332;51.320;-0.580;2024-03-17T13:01:11;2.22;;;1.30;;
69991;SDS011;57332;51.320;-0.580;2024-03-17T13:03:38;4.57;;;1.63;;
69991;SDS011;57332;51.320;-0.580;2024-03-17T13:06:05;2.88;;;1.17;;
69991;SDS011;57332;51.320;-0.580;2024-03-17T13:08:35;3.25;;;1.40;;
69991;SDS011;57332;51.320;-0.580;2024-03-17T13:11:01;4.95;;;1.25;;
69991;SDS011;57332;51.320;-0.580;2024-03-17T13:13:31;2.67;;;1.27;;
69991;SDS011;57332;51.320;-0.580;2024-03-17T13:15:57;3.72;;;1.40;;
69991;SDS011;57332;51.320;-0.580;2024-03-17T13:18:24;1.60;;;0.98;;
69991;SDS011;57332;51.320;-0.580;2024-03-17T13:20:50;1.65;;;0.98;;
69991;SDS011;57332;51.320;-0.580;2024-03-17T13:23:17;3.58;;;1.30;;
69991;SDS011;57332;51.320;-0.580;2024-03-17T13:25:43;1.42;;;1.00;;
69991;SDS011;57332;51.320;-0.580;2024-03-17T13:28:10;4.18;;;1.05;;
69991;SDS011;57332;51.320;-0.580;2024-03-17T13:30:36;2.03;;;1.05;;
69991;SDS011;57332;51.320;-0.580;2024-03-17T13:33:03;1.58;;;0.95;;
69991;SDS011;57332;51.320;-0.580;2024-03-17T13:35:34;1.23;;;0.82;;
69991;SDS011;57332;51.320;-0.580;2024-03-17T13:38:00;1.58;;;0.90;;
69991;SDS011;57332;51.320;-0.580;2024-03-17T13:40:28;1.75;;;0.93;;
69991;SDS011;57332;51.320;-0.580;2024-03-17T13:42:55;1.70;;;0.90;;
69991;SDS011;57332;51.320;-0.580;2024-03-17T13:45:22;1.80;;;0.90;;
69991;SDS011;57332;51.320;-0.580;2024-03-17T13:47:56;1.40;;;0.80;;
69991;SDS011;57332;51.320;-0.580;2024-03-17T13:50:22;2.20;;;0.90;;
69991;SDS011;57332;51.320;-0.580;2024-03-17T13:52:48;1.85;;;1.10;;
69991;SDS011;57332;51.320;-0.580;2024-03-17T13:55:14;1.85;;;0.90;;
69991;SDS011;57332;51.320;-0.580;2024-03-17T13:57:44;2.10;;;1.00;;
69991;SDS011;57332;51.320;-0.580;2024-03-17T14:00:11;1.45;;;0.80;;
69991;SDS011;57332;51.320;-0.580;2024-03-17T14:02:44;2.42;;;1.05;;
69991;SDS011;57332;51.320;-0.580;2024-03-17T14:05:12;2.38;;;1.00;;
69991;SDS011;57332;51.320;-0.580;2024-03-17T14:07:38;4.18;;;1.17;;
69991;SDS011;57332;51.320;-0.580;2024-03-17T14:10:04;2.55;;;1.00;;
69991;SDS011;57332;51.320;-0.580;2024-03-17T14:12:30;1.30;;;0.90;;
69991;SDS011;57332;51.320;-0.580;2024-03-17T14:14:57;2.17;;;1.00;;
69991;SDS011;57332;51.320;-0.580;2024-03-17T14:17:23;3.83;;;1.00;;
69991;SDS011;57332;51.320;-0.580;2024-03-17T14:19:48;2.03;;;0.88;;
69991;SDS011;57332;51.320;-0.580;2024-03-17T14:22:14;1.30;;;0.50;;
69991;SDS011;57332;51.320;-0.580;2024-03-17T14:24:40;2.50;;;0.85;;
69991;SDS011;57332;51.320;-0.580;2024-03-17T14:27:07;2.08;;;0.93;;
69991;SDS011;57332;51.320;-0.580;2024-03-17T14:29:33;2.97;;;0.70;;
69991;SDS011;57332;51.320;-0.580;2024-03-17T14:31:59;2.70;;;0.70;;
69991;SDS011;57332;51.320;-0.580;2024-03-17T14:34:24;1.73;;;0.90;;
69991;SDS011;57332;51.320;-0.580;2024-03-17T14:36:52;1.52;;;0.80;;
69991;SDS011;57332;51.320;-0.580;2024-03-17T14:39:18;1.77;;;0.60;;
69991;SDS011;57332;51.320;-0.580;2024-03-17T14:41:44;2.10;;;0.55;;
69991;SDS011;57332;51.320;-0.580;2024-03-17T14:44:09;1.05;;;0.60;;
69991;SDS011;57332;51.320;-0.580;2024-03-17T14:46:35;1.38;;;0.50;;
69991;SDS011;57332;51.320;-0.580;2024-03-17T14:49:03;1.65;;;0.40;;
69991;SDS011;57332;51.320;-0.580;2024-03-17T14:51:30;3.13;;;0.60;;
69991;SDS011;57332;51.320;-0.580;2024-03-17T14:53:59;1.63;;;0.50;;
69991;SDS011;57332;51.320;-0.580;2024-03-17T14:56:26;2.30;;;0.40;;
69991;SDS011;57332;51.320;-0.580;2024-03-17T14:58:51;1.77;;;0.60;;
69991;SDS011;57332;51.320;-0.580;2024-03-17T15:01:17;0.90;;;0.40;;